ナント の空港の天気 - METARとTAF

ナント空港 ( LFRS / NTE ) - フランス ナント
飛行場実況気象(Metar)
観測時間09/18 02:00 CEST (09/18 00:00 UTC)
風向・風速北東 5m/s
視程10km以上
天気現象
なし
気温17℃
湿度68%
気圧1020hPa
METARLFRS 180000Z AUTO 04009KT 010V070 CAVOK 17/11 Q1020 NOSIG
過去の天気等 Google飛行場航空写真 Wunderground天気予報

過去48時間のMETAR

飛行場予報(TAF)
発表時間: 9/18 01:00 CEST (9/17 23:00 UTC)
予報対象時間: 18日2時 CEST ~ 19日8時 CEST
風向・風速北東 5m/s
視程10km以上
なし
18日14時 CEST ~ 18日21時 CEST に一時的に
風向・風速北東 8m/s 瞬間風速 13m/s
TAF LFRS 172300Z 1800/1906 04010KT CAVOK
TEMPO 1812/1819 05015G25KT